sensor_id;sensor_type;location;lat;lon;timestamp;temperature;humidity
19363;DHT22;9817;50.80926400;5.16316200;2024-03-17T00:02:20;9.10;99.90
19363;DHT22;9817;50.80926400;5.16316200;2024-03-17T00:04:45;9.20;99.90
19363;DHT22;9817;50.80926400;5.16316200;2024-03-17T00:07:12;9.20;99.90
19363;DHT22;9817;50.80926400;5.16316200;2024-03-17T00:09:38;9.30;99.90
19363;DHT22;9817;50.80926400;5.16316200;2024-03-17T00:12:04;9.30;99.90
19363;DHT22;9817;50.80926400;5.16316200;2024-03-17T00:14:30;9.10;99.90
19363;DHT22;9817;50.80926400;5.16316200;2024-03-17T00:16:56;9.00;99.90
19363;DHT22;9817;50.80926400;5.16316200;2024-03-17T00:19:23;9.00;99.90
19363;DHT22;9817;50.80926400;5.16316200;2024-03-17T00:21:49;9.00;99.90
19363;DHT22;9817;50.80926400;5.16316200;2024-03-17T00:24:19;8.90;99.90
19363;DHT22;9817;50.80926400;5.16316200;2024-03-17T00:26:45;8.80;99.90
19363;DHT22;9817;50.80926400;5.16316200;2024-03-17T00:29:11;8.90;99.90
19363;DHT22;9817;50.80926400;5.16316200;2024-03-17T00:31:37;8.90;99.90
19363;DHT22;9817;50.80926400;5.16316200;2024-03-17T00:34:03;8.80;99.90
19363;DHT22;9817;50.80926400;5.16316200;2024-03-17T00:36:29;8.70;99.90
19363;DHT22;9817;50.80926400;5.16316200;2024-03-17T00:38:55;8.50;99.90
19363;DHT22;9817;50.80926400;5.16316200;2024-03-17T00:41:22;8.50;99.90
19363;DHT22;9817;50.80926400;5.16316200;2024-03-17T00:43:49;8.70;99.90
19363;DHT22;9817;50.80926400;5.16316200;2024-03-17T00:46:15;8.70;99.90
19363;DHT22;9817;50.80926400;5.16316200;2024-03-17T00:48:41;8.70;99.90
19363;DHT22;9817;50.80926400;5.16316200;2024-03-17T00:51:06;8.70;99.90
19363;DHT22;9817;50.80926400;5.16316200;2024-03-17T00:53:32;8.70;99.90
19363;DHT22;9817;50.80926400;5.16316200;2024-03-17T00:55:58;8.70;99.90
19363;DHT22;9817;50.80926400;5.16316200;2024-03-17T00:58:24;8.60;99.90
19363;DHT22;9817;50.80926400;5.16316200;2024-03-17T01:00:50;8.50;99.90
19363;DHT22;9817;50.80926400;5.16316200;2024-03-17T01:03:18;8.40;99.90
19363;DHT22;9817;50.80926400;5.16316200;2024-03-17T01:05:45;8.40;99.90
19363;DHT22;9817;50.80926400;5.16316200;2024-03-17T01:08:13;8.40;99.90
19363;DHT22;9817;50.80926400;5.16316200;2024-03-17T01:10:40;8.30;99.90
19363;DHT22;9817;50.80926400;5.16316200;2024-03-17T01:13:07;8.30;99.90
19363;DHT22;9817;50.80926400;5.16316200;2024-03-17T01:15:33;8.30;99.90
19363;DHT22;9817;50.80926400;5.16316200;2024-03-17T01:17:59;8.40;99.90
19363;DHT22;9817;50.80926400;5.16316200;2024-03-17T01:20:28;8.50;99.90
19363;DHT22;9817;50.80926400;5.16316200;2024-03-17T01:22:53;8.40;99.90
19363;DHT22;9817;50.80926400;5.16316200;2024-03-17T01:25:19;8.60;99.90
19363;DHT22;9817;50.80926400;5.16316200;2024-03-17T01:27:45;8.70;99.90
19363;DHT22;9817;50.80926400;5.16316200;2024-03-17T01:30:11;8.80;99.90
19363;DHT22;9817;50.80926400;5.16316200;2024-03-17T01:32:37;8.90;99.90
19363;DHT22;9817;50.80926400;5.16316200;2024-03-17T01:35:03;8.90;99.90
19363;DHT22;9817;50.80926400;5.16316200;2024-03-17T01:37:29;8.90;99.90
19363;DHT22;9817;50.80926400;5.16316200;2024-03-17T01:39:58;8.90;99.90
19363;DHT22;9817;50.80926400;5.16316200;2024-03-17T01:42:23;8.80;99.90
19363;DHT22;9817;50.80926400;5.16316200;2024-03-17T01:44:49;8.70;99.90
19363;DHT22;9817;50.80926400;5.16316200;2024-03-17T01:47:16;8.60;99.90
19363;DHT22;9817;50.80926400;5.16316200;2024-03-17T01:49:45;8.50;99.90
19363;DHT22;9817;50.80926400;5.16316200;2024-03-17T01:52:11;8.60;99.90
19363;DHT22;9817;50.80926400;5.16316200;2024-03-17T01:54:37;8.70;99.90
19363;DHT22;9817;50.80926400;5.16316200;2024-03-17T01:57:03;8.80;99.90
19363;DHT22;9817;50.80926400;5.16316200;2024-03-17T01:59:29;8.80;99.90
19363;DHT22;9817;50.80926400;5.16316200;2024-03-17T02:01:56;8.80;99.90
19363;DHT22;9817;50.80926400;5.16316200;2024-03-17T02:04:21;8.90;99.90
19363;DHT22;9817;50.80926400;5.16316200;2024-03-17T02:06:47;8.80;99.90
19363;DHT22;9817;50.80926400;5.16316200;2024-03-17T02:09:13;8.80;99.90
19363;DHT22;9817;50.80926400;5.16316200;2024-03-17T02:11:38;8.70;99.90
19363;DHT22;9817;50.80926400;5.16316200;2024-03-17T02:14:04;8.70;99.90
19363;DHT22;9817;50.80926400;5.16316200;2024-03-17T02:16:32;8.80;99.90
19363;DHT22;9817;50.80926400;5.16316200;2024-03-17T02:18:58;8.80;99.90
19363;DHT22;9817;50.80926400;5.16316200;2024-03-17T02:21:25;8.70;99.90
19363;DHT22;9817;50.80926400;5.16316200;2024-03-17T02:23:53;8.70;99.90
19363;DHT22;9817;50.80926400;5.16316200;2024-03-17T02:26:19;8.60;99.90
19363;DHT22;9817;50.80926400;5.16316200;2024-03-17T02:28:46;8.70;99.90
19363;DHT22;9817;50.80926400;5.16316200;2024-03-17T02:31:13;8.70;99.90
19363;DHT22;9817;50.80926400;5.16316200;2024-03-17T02:33:40;8.60;99.90
19363;DHT22;9817;50.80926400;5.16316200;2024-03-17T02:36:06;8.70;99.90
19363;DHT22;9817;50.80926400;5.16316200;2024-03-17T02:38:40;8.70;99.90
19363;DHT22;9817;50.80926400;5.16316200;2024-03-17T02:41:25;8.60;99.90
19363;DHT22;9817;50.80926400;5.16316200;2024-03-17T02:43:51;8.70;99.90
19363;DHT22;9817;50.80926400;5.16316200;2024-03-17T02:46:18;8.60;99.90
19363;DHT22;9817;50.80926400;5.16316200;2024-03-17T02:48:45;8.60;99.90
19363;DHT22;9817;50.80926400;5.16316200;2024-03-17T02:51:17;8.60;99.90
19363;DHT22;9817;50.80926400;5.16316200;2024-03-17T02:53:48;8.60;99.90
19363;DHT22;9817;50.80926400;5.16316200;2024-03-17T02:56:15;8.60;99.90
19363;DHT22;9817;50.80926400;5.16316200;2024-03-17T02:58:42;8.60;99.90
19363;DHT22;9817;50.80926400;5.16316200;2024-03-17T03:01:08;8.60;99.90
19363;DHT22;9817;50.80926400;5.16316200;2024-03-17T03:03:37;8.70;99.90
19363;DHT22;9817;50.80926400;5.16316200;2024-03-17T03:06:03;8.60;99.90
19363;DHT22;9817;50.80926400;5.16316200;2024-03-17T03:08:37;8.50;99.90
19363;DHT22;9817;50.80926400;5.16316200;2024-03-17T03:11:09;8.50;99.90
19363;DHT22;9817;50.80926400;5.16316200;2024-03-17T03:13:39;8.40;99.90
19363;DHT22;9817;50.80926400;5.16316200;2024-03-17T03:16:09;8.50;99.90
19363;DHT22;9817;50.80926400;5.16316200;2024-03-17T03:18:36;8.50;99.90
19363;DHT22;9817;50.80926400;5.16316200;2024-03-17T03:21:01;8.50;99.90
19363;DHT22;9817;50.80926400;5.16316200;2024-03-17T03:23:27;8.50;99.90
19363;DHT22;9817;50.80926400;5.16316200;2024-03-17T03:25:56;8.60;99.90
19363;DHT22;9817;50.80926400;5.16316200;2024-03-17T03:28:23;8.80;99.90
19363;DHT22;9817;50.80926400;5.16316200;2024-03-17T03:30:49;8.80;99.90
19363;DHT22;9817;50.80926400;5.16316200;2024-03-17T03:33:15;8.90;99.90
19363;DHT22;9817;50.80926400;5.16316200;2024-03-17T03:35:40;9.00;99.90
19363;DHT22;9817;50.80926400;5.16316200;2024-03-17T03:38:06;8.90;99.90
19363;DHT22;9817;50.80926400;5.16316200;2024-03-17T03:40:31;8.80;99.90
19363;DHT22;9817;50.80926400;5.16316200;2024-03-17T03:42:58;8.80;99.90
19363;DHT22;9817;50.80926400;5.16316200;2024-03-17T03:45:24;8.50;99.90
19363;DHT22;9817;50.80926400;5.16316200;2024-03-17T03:47:50;8.60;99.90
19363;DHT22;9817;50.80926400;5.16316200;2024-03-17T03:50:20;8.80;99.90
19363;DHT22;9817;50.80926400;5.16316200;2024-03-17T03:52:46;8.90;99.90
19363;DHT22;9817;50.80926400;5.16316200;2024-03-17T03:55:12;8.90;99.90
19363;DHT22;9817;50.80926400;5.16316200;2024-03-17T03:57:44;9.00;99.90
19363;DHT22;9817;50.80926400;5.16316200;2024-03-17T04:00:18;9.00;99.90
19363;DHT22;9817;50.80926400;5.16316200;2024-03-17T04:02:52;9.00;99.90
19363;DHT22;9817;50.80926400;5.16316200;2024-03-17T04:05:20;9.20;99.90
19363;DHT22;9817;50.80926400;5.16316200;2024-03-17T04:07:47;9.20;99.90
19363;DHT22;9817;50.80926400;5.16316200;2024-03-17T04:10:14;9.30;99.90
19363;DHT22;9817;50.80926400;5.16316200;2024-03-17T04:12:41;9.20;99.90
19363;DHT22;9817;50.80926400;5.16316200;2024-03-17T04:15:07;9.20;99.90
19363;DHT22;9817;50.80926400;5.16316200;2024-03-17T04:17:35;9.30;99.90
19363;DHT22;9817;50.80926400;5.16316200;2024-03-17T04:20:01;9.30;99.90
19363;DHT22;9817;50.80926400;5.16316200;2024-03-17T04:22:26;9.40;99.90
19363;DHT22;9817;50.80926400;5.16316200;2024-03-17T04:24:52;9.40;99.90
19363;DHT22;9817;50.80926400;5.16316200;2024-03-17T04:27:23;9.40;99.90
19363;DHT22;9817;50.80926400;5.16316200;2024-03-17T04:29:56;9.50;99.90
19363;DHT22;9817;50.80926400;5.16316200;2024-03-17T04:32:22;9.40;99.90
19363;DHT22;9817;50.80926400;5.16316200;2024-03-17T04:34:49;9.40;99.90
19363;DHT22;9817;50.80926400;5.16316200;2024-03-17T04:37:14;9.30;99.90
19363;DHT22;9817;50.80926400;5.16316200;2024-03-17T04:39:40;9.30;99.90
19363;DHT22;9817;50.80926400;5.16316200;2024-03-17T04:42:12;9.20;99.90
19363;DHT22;9817;50.80926400;5.16316200;2024-03-17T04:44:37;9.30;99.90
19363;DHT22;9817;50.80926400;5.16316200;2024-03-17T04:47:04;9.20;99.90
19363;DHT22;9817;50.80926400;5.16316200;2024-03-17T04:52:01;9.20;99.90
19363;DHT22;9817;50.80926400;5.16316200;2024-03-17T04:54:27;9.10;99.90
19363;DHT22;9817;50.80926400;5.16316200;2024-03-17T04:56:52;9.10;99.90
19363;DHT22;9817;50.80926400;5.16316200;2024-03-17T04:59:18;8.90;99.90
19363;DHT22;9817;50.80926400;5.16316200;2024-03-17T05:01:44;9.00;99.90
19363;DHT22;9817;50.80926400;5.16316200;2024-03-17T05:04:10;9.10;99.90
19363;DHT22;9817;50.80926400;5.16316200;2024-03-17T05:06:36;9.10;99.90
19363;DHT22;9817;50.80926400;5.16316200;2024-03-17T05:09:02;8.90;99.90
19363;DHT22;9817;50.80926400;5.16316200;2024-03-17T05:11:30;8.80;99.90
19363;DHT22;9817;50.80926400;5.16316200;2024-03-17T05:13:56;8.70;99.90
19363;DHT22;9817;50.80926400;5.16316200;2024-03-17T05:16:22;8.70;99.90
19363;DHT22;9817;50.80926400;5.16316200;2024-03-17T05:18:49;8.70;99.90
19363;DHT22;9817;50.80926400;5.16316200;2024-03-17T05:21:15;8.70;99.90
19363;DHT22;9817;50.80926400;5.16316200;2024-03-17T05:23:41;8.70;99.90
19363;DHT22;9817;50.80926400;5.16316200;2024-03-17T05:26:06;8.70;99.90
19363;DHT22;9817;50.80926400;5.16316200;2024-03-17T05:28:32;8.60;99.90
19363;DHT22;9817;50.80926400;5.16316200;2024-03-17T05:30:58;8.70;99.90
19363;DHT22;9817;50.80926400;5.16316200;2024-03-17T05:33:25;8.60;99.90
19363;DHT22;9817;50.80926400;5.16316200;2024-03-17T05:35:52;8.50;99.90
19363;DHT22;9817;50.80926400;5.16316200;2024-03-17T05:38:25;8.60;99.90
19363;DHT22;9817;50.80926400;5.16316200;2024-03-17T05:41:01;8.60;99.90
19363;DHT22;9817;50.80926400;5.16316200;2024-03-17T05:43:31;8.70;99.90
19363;DHT22;9817;50.80926400;5.16316200;2024-03-17T05:45:59;8.70;99.90
19363;DHT22;9817;50.80926400;5.16316200;2024-03-17T05:48:26;8.60;99.90
19363;DHT22;9817;50.80926400;5.16316200;2024-03-17T05:50:52;8.70;99.90
19363;DHT22;9817;50.80926400;5.16316200;2024-03-17T05:53:18;8.60;99.90
19363;DHT22;9817;50.80926400;5.16316200;2024-03-17T05:55:44;8.70;99.90
19363;DHT22;9817;50.80926400;5.16316200;2024-03-17T05:58:10;8.70;99.90
19363;DHT22;9817;50.80926400;5.16316200;2024-03-17T06:00:37;8.50;99.90
19363;DHT22;9817;50.80926400;5.16316200;2024-03-17T06:03:04;8.50;99.90
19363;DHT22;9817;50.80926400;5.16316200;2024-03-17T06:05:34;8.60;99.90
19363;DHT22;9817;50.80926400;5.16316200;2024-03-17T06:08:02;8.80;99.90
19363;DHT22;9817;50.80926400;5.16316200;2024-03-17T06:10:29;8.80;99.90
19363;DHT22;9817;50.80926400;5.16316200;2024-03-17T06:12:56;8.80;99.90
19363;DHT22;9817;50.80926400;5.16316200;2024-03-17T06:15:22;8.70;99.90
19363;DHT22;9817;50.80926400;5.16316200;2024-03-17T06:17:49;8.80;99.90
19363;DHT22;9817;50.80926400;5.16316200;2024-03-17T06:20:17;9.00;99.90
19363;DHT22;9817;50.80926400;5.16316200;2024-03-17T06:22:43;9.00;99.90
19363;DHT22;9817;50.80926400;5.16316200;2024-03-17T06:25:08;9.20;99.90
19363;DHT22;9817;50.80926400;5.16316200;2024-03-17T06:27:35;9.20;99.90
19363;DHT22;9817;50.80926400;5.16316200;2024-03-17T06:30:01;9.20;99.90
19363;DHT22;9817;50.80926400;5.16316200;2024-03-17T06:32:30;9.30;99.90
19363;DHT22;9817;50.80926400;5.16316200;2024-03-17T06:34:57;9.20;99.90
19363;DHT22;9817;50.80926400;5.16316200;2024-03-17T06:37:23;9.10;99.90
19363;DHT22;9817;50.80926400;5.16316200;2024-03-17T06:39:49;9.10;99.90
19363;DHT22;9817;50.80926400;5.16316200;2024-03-17T06:42:15;9.20;99.90
19363;DHT22;9817;50.80926400;5.16316200;2024-03-17T06:44:41;9.10;99.90
19363;DHT22;9817;50.80926400;5.16316200;2024-03-17T06:47:07;9.20;99.90
19363;DHT22;9817;50.80926400;5.16316200;2024-03-17T06:49:32;9.20;99.90
19363;DHT22;9817;50.80926400;5.16316200;2024-03-17T06:51:58;9.20;99.90
19363;DHT22;9817;50.80926400;5.16316200;2024-03-17T06:54:24;9.20;99.90
19363;DHT22;9817;50.80926400;5.16316200;2024-03-17T06:56:50;9.30;99.90
19363;DHT22;9817;50.80926400;5.16316200;2024-03-17T06:59:17;9.40;99.90
19363;DHT22;9817;50.80926400;5.16316200;2024-03-17T07:01:43;9.40;99.90
19363;DHT22;9817;50.80926400;5.16316200;2024-03-17T07:04:10;9.70;99.90
19363;DHT22;9817;50.80926400;5.16316200;2024-03-17T07:06:36;10.00;99.90
19363;DHT22;9817;50.80926400;5.16316200;2024-03-17T07:09:02;10.20;99.90
19363;DHT22;9817;50.80926400;5.16316200;2024-03-17T07:11:28;10.60;99.90
19363;DHT22;9817;50.80926400;5.16316200;2024-03-17T07:13:53;10.80;99.90
19363;DHT22;9817;50.80926400;5.16316200;2024-03-17T07:16:19;11.10;99.90
19363;DHT22;9817;50.80926400;5.16316200;2024-03-17T07:18:47;11.30;99.90
19363;DHT22;9817;50.80926400;5.16316200;2024-03-17T07:21:13;11.30;99.90
19363;DHT22;9817;50.80926400;5.16316200;2024-03-17T07:23:38;11.30;99.90
19363;DHT22;9817;50.80926400;5.16316200;2024-03-17T07:26:04;11.10;99.90
19363;DHT22;9817;50.80926400;5.16316200;2024-03-17T07:28:31;11.10;99.90
19363;DHT22;9817;50.80926400;5.16316200;2024-03-17T07:30:58;11.00;99.90
19363;DHT22;9817;50.80926400;5.16316200;2024-03-17T07:33:24;11.20;99.90
19363;DHT22;9817;50.80926400;5.16316200;2024-03-17T07:35:54;11.10;99.90
19363;DHT22;9817;50.80926400;5.16316200;2024-03-17T07:38:23;11.30;99.90
19363;DHT22;9817;50.80926400;5.16316200;2024-03-17T07:41:02;11.50;99.90
19363;DHT22;9817;50.80926400;5.16316200;2024-03-17T07:43:28;11.90;99.90
19363;DHT22;9817;50.80926400;5.16316200;2024-03-17T07:46:09;12.00;99.90
19363;DHT22;9817;50.80926400;5.16316200;2024-03-17T07:48:40;12.20;99.90
19363;DHT22;9817;50.80926400;5.16316200;2024-03-17T07:51:07;12.40;99.90
19363;DHT22;9817;50.80926400;5.16316200;2024-03-17T07:53:34;12.80;99.90
19363;DHT22;9817;50.80926400;5.16316200;2024-03-17T07:56:05;12.90;99.90
19363;DHT22;9817;50.80926400;5.16316200;2024-03-17T07:58:32;13.10;99.90
19363;DHT22;9817;50.80926400;5.16316200;2024-03-17T08:00:59;12.70;99.90
19363;DHT22;9817;50.80926400;5.16316200;2024-03-17T08:03:28;12.70;99.90
19363;DHT22;9817;50.80926400;5.16316200;2024-03-17T08:05:54;12.90;99.90
19363;DHT22;9817;50.80926400;5.16316200;2024-03-17T08:08:20;13.10;99.90
19363;DHT22;9817;50.80926400;5.16316200;2024-03-17T08:10:46;13.20;99.90
19363;DHT22;9817;50.80926400;5.16316200;2024-03-17T08:13:14;13.00;99.90
19363;DHT22;9817;50.80926400;5.16316200;2024-03-17T08:15:42;12.70;99.90
19363;DHT22;9817;50.80926400;5.16316200;2024-03-17T08:18:09;12.50;99.90
19363;DHT22;9817;50.80926400;5.16316200;2024-03-17T08:20:41;12.40;99.90
19363;DHT22;9817;50.80926400;5.16316200;2024-03-17T08:23:12;12.60;99.90
19363;DHT22;9817;50.80926400;5.16316200;2024-03-17T08:25:38;12.40;99.90
19363;DHT22;9817;50.80926400;5.16316200;2024-03-17T08:28:05;12.30;99.90
19363;DHT22;9817;50.80926400;5.16316200;2024-03-17T08:30:31;12.40;99.90
19363;DHT22;9817;50.80926400;5.16316200;2024-03-17T08:32:57;12.60;99.90
19363;DHT22;9817;50.80926400;5.16316200;2024-03-17T08:35:22;13.20;99.90
19363;DHT22;9817;50.80926400;5.16316200;2024-03-17T08:37:48;14.00;99.90
19363;DHT22;9817;50.80926400;5.16316200;2024-03-17T08:40:14;14.40;99.90
19363;DHT22;9817;50.80926400;5.16316200;2024-03-17T08:42:40;14.80;99.90
19363;DHT22;9817;50.80926400;5.16316200;2024-03-17T08:45:06;14.70;99.90
19363;DHT22;9817;50.80926400;5.16316200;2024-03-17T08:47:32;15.30;99.90
19363;DHT22;9817;50.80926400;5.16316200;2024-03-17T08:49:57;15.60;99.90
19363;DHT22;9817;50.80926400;5.16316200;2024-03-17T08:52:24;15.00;99.90
19363;DHT22;9817;50.80926400;5.16316200;2024-03-17T08:54:50;14.60;99.90
19363;DHT22;9817;50.80926400;5.16316200;2024-03-17T08:57:18;14.80;99.90
19363;DHT22;9817;50.80926400;5.16316200;2024-03-17T08:59:47;15.30;99.90
19363;DHT22;9817;50.80926400;5.16316200;2024-03-17T09:02:13;15.40;99.90
19363;DHT22;9817;50.80926400;5.16316200;2024-03-17T09:04:42;15.50;99.90
19363;DHT22;9817;50.80926400;5.16316200;2024-03-17T09:07:08;15.50;99.90
19363;DHT22;9817;50.80926400;5.16316200;2024-03-17T09:09:33;15.40;99.90
19363;DHT22;9817;50.80926400;5.16316200;2024-03-17T09:11:59;15.20;99.90
19363;DHT22;9817;50.80926400;5.16316200;2024-03-17T09:14:25;15.20;99.90
19363;DHT22;9817;50.80926400;5.16316200;2024-03-17T09:16:50;15.20;99.90
19363;DHT22;9817;50.80926400;5.16316200;2024-03-17T09:19:16;15.20;99.90
19363;DHT22;9817;50.80926400;5.16316200;2024-03-17T09:21:42;15.20;99.90
19363;DHT22;9817;50.80926400;5.16316200;2024-03-17T09:24:08;15.60;99.90
19363;DHT22;9817;50.80926400;5.16316200;2024-03-17T09:26:34;15.60;99.90
19363;DHT22;9817;50.80926400;5.16316200;2024-03-17T09:29:01;15.40;99.90
19363;DHT22;9817;50.80926400;5.16316200;2024-03-17T09:31:26;15.50;99.90
19363;DHT22;9817;50.80926400;5.16316200;2024-03-17T09:33:52;15.50;99.90
19363;DHT22;9817;50.80926400;5.16316200;2024-03-17T09:36:18;16.00;99.90
19363;DHT22;9817;50.80926400;5.16316200;2024-03-17T09:38:44;16.10;99.90
19363;DHT22;9817;50.80926400;5.16316200;2024-03-17T09:41:36;16.30;99.90
19363;DHT22;9817;50.80926400;5.16316200;2024-03-17T09:44:06;16.50;99.90
19363;DHT22;9817;50.80926400;5.16316200;2024-03-17T09:46:35;16.40;99.90
19363;DHT22;9817;50.80926400;5.16316200;2024-03-17T09:49:01;16.40;99.90
19363;DHT22;9817;50.80926400;5.16316200;2024-03-17T09:51:26;16.10;99.90
19363;DHT22;9817;50.80926400;5.16316200;2024-03-17T09:53:52;15.90;99.90
19363;DHT22;9817;50.80926400;5.16316200;2024-03-17T09:56:20;15.50;99.90
19363;DHT22;9817;50.80926400;5.16316200;2024-03-17T09:58:51;15.30;99.90
19363;DHT22;9817;50.80926400;5.16316200;2024-03-17T10:01:17;15.50;99.90
19363;DHT22;9817;50.80926400;5.16316200;2024-03-17T10:03:53;15.70;99.90
19363;DHT22;9817;50.80926400;5.16316200;2024-03-17T10:06:25;15.60;99.90
19363;DHT22;9817;50.80926400;5.16316200;2024-03-17T10:08:57;15.80;99.90
19363;DHT22;9817;50.80926400;5.16316200;2024-03-17T10:11:24;15.90;99.90
19363;DHT22;9817;50.80926400;5.16316200;2024-03-17T10:16:30;16.00;99.90
19363;DHT22;9817;50.80926400;5.16316200;2024-03-17T10:21:43;16.00;99.90
19363;DHT22;9817;50.80926400;5.16316200;2024-03-17T10:24:13;15.80;99.90
19363;DHT22;9817;50.80926400;5.16316200;2024-03-17T10:26:47;15.80;99.90
19363;DHT22;9817;50.80926400;5.16316200;2024-03-17T10:29:30;15.70;99.90
19363;DHT22;9817;50.80926400;5.16316200;2024-03-17T10:34:31;15.60;99.90
19363;DHT22;9817;50.80926400;5.16316200;2024-03-17T10:37:19;15.20;99.90
19363;DHT22;9817;50.80926400;5.16316200;2024-03-17T10:39:50;15.20;99.90
19363;DHT22;9817;50.80926400;5.16316200;2024-03-17T10:42:24;15.10;99.90
19363;DHT22;9817;50.80926400;5.16316200;2024-03-17T10:44:50;15.20;99.90
19363;DHT22;9817;50.80926400;5.16316200;2024-03-17T10:47:27;15.20;99.90
19363;DHT22;9817;50.80926400;5.16316200;2024-03-17T10:49:54;15.20;99.90
19363;DHT22;9817;50.80926400;5.16316200;2024-03-17T10:52:22;15.20;99.90
19363;DHT22;9817;50.80926400;5.16316200;2024-03-17T10:54:49;15.00;99.90
19363;DHT22;9817;50.80926400;5.16316200;2024-03-17T10:57:27;15.00;99.90
19363;DHT22;9817;50.80926400;5.16316200;2024-03-17T10:59:53;15.10;99.90
19363;DHT22;9817;50.80926400;5.16316200;2024-03-17T11:02:24;15.30;99.90
19363;DHT22;9817;50.80926400;5.16316200;2024-03-17T11:04:52;15.50;99.90
19363;DHT22;9817;50.80926400;5.16316200;2024-03-17T11:07:19;15.60;99.90
19363;DHT22;9817;50.80926400;5.16316200;2024-03-17T11:09:46;15.60;99.90
19363;DHT22;9817;50.80926400;5.16316200;2024-03-17T11:12:41;15.70;99.90
19363;DHT22;9817;50.80926400;5.16316200;2024-03-17T11:17:48;16.20;99.90
19363;DHT22;9817;50.80926400;5.16316200;2024-03-17T11:20:24;16.30;99.90
19363;DHT22;9817;50.80926400;5.16316200;2024-03-17T11:22:51;16.20;99.90
19363;DHT22;9817;50.80926400;5.16316200;2024-03-17T11:41:37;16.10;99.90
19363;DHT22;9817;50.80926400;5.16316200;2024-03-17T11:46:55;16.00;99.90
19363;DHT22;9817;50.80926400;5.16316200;2024-03-17T11:49:25;15.90;99.90
19363;DHT22;9817;50.80926400;5.16316200;2024-03-17T11:51:51;16.20;99.90
19363;DHT22;9817;50.80926400;5.16316200;2024-03-17T11:54:28;16.30;99.90
19363;DHT22;9817;50.80926400;5.16316200;2024-03-17T11:56:56;16.40;99.90
19363;DHT22;9817;50.80926400;5.16316200;2024-03-17T11:59:25;16.20;99.90
19363;DHT22;9817;50.80926400;5.16316200;2024-03-17T12:01:52;16.30;99.90
19363;DHT22;9817;50.80926400;5.16316200;2024-03-17T12:04:23;16.50;99.90
19363;DHT22;9817;50.80926400;5.16316200;2024-03-17T12:09:26;16.30;99.90
19363;DHT22;9817;50.80926400;5.16316200;2024-03-17T12:12:19;16.30;99.90
19363;DHT22;9817;50.80926400;5.16316200;2024-03-17T12:14:45;16.60;99.90
19363;DHT22;9817;50.80926400;5.16316200;2024-03-17T12:17:13;16.50;99.90
19363;DHT22;9817;50.80926400;5.16316200;2024-03-17T12:19:40;16.50;99.90
19363;DHT22;9817;50.80926400;5.16316200;2024-03-17T12:22:06;16.50;99.90
19363;DHT22;9817;50.80926400;5.16316200;2024-03-17T12:24:33;16.50;99.90
19363;DHT22;9817;50.80926400;5.16316200;2024-03-17T12:27:00;16.70;99.90
19363;DHT22;9817;50.80926400;5.16316200;2024-03-17T12:29:31;16.90;99.90
19363;DHT22;9817;50.80926400;5.16316200;2024-03-17T12:34:37;16.70;99.90
19363;DHT22;9817;50.80926400;5.16316200;2024-03-17T12:37:04;16.70;99.90
19363;DHT22;9817;50.80926400;5.16316200;2024-03-17T12:39:34;16.70;99.90
19363;DHT22;9817;50.80926400;5.16316200;2024-03-17T12:42:13;16.80;99.90
19363;DHT22;9817;50.80926400;5.16316200;2024-03-17T12:44:47;16.80;99.90
19363;DHT22;9817;50.80926400;5.16316200;2024-03-17T12:47:20;16.90;99.90
19363;DHT22;9817;50.80926400;5.16316200;2024-03-17T12:52:24;16.90;99.90
19363;DHT22;9817;50.80926400;5.16316200;2024-03-17T12:55:19;16.80;99.90
19363;DHT22;9817;50.80926400;5.16316200;2024-03-17T13:01:01;17.30;99.90
19363;DHT22;9817;50.80926400;5.16316200;2024-03-17T13:03:37;17.50;99.90
19363;DHT22;9817;50.80926400;5.16316200;2024-03-17T13:06:05;17.40;99.90
19363;DHT22;9817;50.80926400;5.16316200;2024-03-17T13:08:32;17.50;99.90
19363;DHT22;9817;50.80926400;5.16316200;2024-03-17T13:10:59;17.20;99.90
19363;DHT22;9817;50.80926400;5.16316200;2024-03-17T13:13:25;17.10;99.90
19363;DHT22;9817;50.80926400;5.16316200;2024-03-17T13:15:50;16.90;99.90
19363;DHT22;9817;50.80926400;5.16316200;2024-03-17T13:18:17;16.90;99.90
19363;DHT22;9817;50.80926400;5.16316200;2024-03-17T13:20:47;17.10;99.90
19363;DHT22;9817;50.80926400;5.16316200;2024-03-17T13:23:15;17.30;99.90
19363;DHT22;9817;50.80926400;5.16316200;2024-03-17T13:25:41;17.30;99.90
19363;DHT22;9817;50.80926400;5.16316200;2024-03-17T13:28:08;17.30;99.90
19363;DHT22;9817;50.80926400;5.16316200;2024-03-17T13:30:34;17.50;99.90
19363;DHT22;9817;50.80926400;5.16316200;2024-03-17T13:33:02;17.30;99.90
19363;DHT22;9817;50.80926400;5.16316200;2024-03-17T13:35:34;17.40;99.90
19363;DHT22;9817;50.80926400;5.16316200;2024-03-17T13:38:00;17.70;99.90
19363;DHT22;9817;50.80926400;5.16316200;2024-03-17T13:40:27;17.50;99.90
19363;DHT22;9817;50.80926400;5.16316200;2024-03-17T13:42:54;17.60;99.90
19363;DHT22;9817;50.80926400;5.16316200;2024-03-17T13:45:22;17.40;99.90
19363;DHT22;9817;50.80926400;5.16316200;2024-03-17T13:48:02;17.30;99.90
19363;DHT22;9817;50.80926400;5.16316200;2024-03-17T13:53:22;17.00;99.90
19363;DHT22;9817;50.80926400;5.16316200;2024-03-17T13:55:48;17.00;99.90
19363;DHT22;9817;50.80926400;5.16316200;2024-03-17T13:58:17;17.00;99.90
19363;DHT22;9817;50.80926400;5.16316200;2024-03-17T14:00:43;17.30;99.90
19363;DHT22;9817;50.80926400;5.16316200;2024-03-17T14:03:09;17.30;99.90
19363;DHT22;9817;50.80926400;5.16316200;2024-03-17T14:05:35;17.20;99.90
19363;DHT22;9817;50.80926400;5.16316200;2024-03-17T14:08:01;17.20;99.90
19363;DHT22;9817;50.80926400;5.16316200;2024-03-17T14:10:27;17.30;99.90
19363;DHT22;9817;50.80926400;5.16316200;2024-03-17T14:12:53;17.30;99.90
19363;DHT22;9817;50.80926400;5.16316200;2024-03-17T14:15:19;17.10;99.90
19363;DHT22;9817;50.80926400;5.16316200;2024-03-17T14:17:45;16.90;99.90
19363;DHT22;9817;50.80926400;5.16316200;2024-03-17T14:20:13;17.00;99.90
19363;DHT22;9817;50.80926400;5.16316200;2024-03-17T14:22:40;16.90;99.90
19363;DHT22;9817;50.80926400;5.16316200;2024-03-17T14:25:10;17.00;99.90
19363;DHT22;9817;50.80926400;5.16316200;2024-03-17T14:27:42;17.00;99.90
19363;DHT22;9817;50.80926400;5.16316200;2024-03-17T14:30:08;17.10;99.90